createdAt,value
2023-02-23T00:01:28.794Z,24.70
2023-02-23T00:03:59.679Z,24.70
2023-02-23T00:06:31.939Z,24.70
2023-02-23T00:09:01.656Z,24.70
2023-02-23T00:11:31.397Z,24.70
2023-02-23T00:14:04.358Z,24.70
2023-02-23T00:16:34.398Z,24.70
2023-02-23T00:19:08.426Z,24.80
2023-02-23T00:21:39.133Z,24.70
2023-02-23T00:24:10.211Z,24.70
2023-02-23T00:26:41.891Z,24.70
2023-02-23T00:29:12.777Z,24.70
2023-02-23T00:31:42.171Z,24.80
2023-02-23T00:34:13.397Z,24.70
2023-02-23T00:36:44.515Z,24.80
2023-02-23T00:39:19.495Z,24.80
2023-02-23T00:41:48.750Z,24.80
2023-02-23T00:44:18.385Z,24.80
2023-02-23T00:46:51.670Z,24.70
2023-02-23T00:49:22.660Z,24.70
2023-02-23T00:51:55.061Z,24.70
2023-02-23T00:54:24.716Z,24.70
2023-02-23T00:56:56.071Z,24.70
2023-02-23T00:59:25.160Z,24.70
2023-02-23T01:01:54.314Z,24.70
2023-02-23T01:04:24.558Z,24.70
2023-02-23T01:06:55.444Z,24.70
2023-02-23T01:09:29.654Z,24.70
2023-02-23T01:12:01.558Z,24.70
2023-02-23T01:14:31.522Z,24.70
2023-02-23T01:17:00.487Z,24.70
2023-02-23T01:19:34.275Z,24.70
2023-02-23T01:22:04.335Z,24.70
2023-02-23T01:24:35.634Z,24.70
2023-02-23T01:27:04.398Z,24.70
2023-02-23T01:29:34.845Z,24.70
2023-02-23T01:32:05.050Z,24.70
2023-02-23T01:34:34.332Z,24.70
2023-02-23T01:37:04.624Z,24.70
2023-02-23T01:39:34.943Z,24.70
2023-02-23T01:42:05.607Z,24.70
2023-02-23T01:45:18.883Z,24.70
2023-02-23T01:47:48.180Z,24.70
2023-02-23T01:50:18.174Z,24.70
2023-02-23T01:52:48.996Z,24.70
2023-02-23T01:55:23.770Z,24.70
2023-02-23T01:57:59.752Z,24.70
2023-02-23T02:00:32.117Z,24.70
2023-02-23T02:03:03.067Z,24.70
2023-02-23T02:05:32.503Z,24.60
2023-02-23T02:08:03.482Z,24.70
2023-02-23T02:10:45.286Z,24.70
2023-02-23T02:13:21.949Z,24.60
2023-02-23T02:16:36.030Z,24.70
2023-02-23T02:19:25.560Z,24.70
2023-02-23T02:22:32.856Z,24.70
2023-02-23T02:25:38.530Z,24.70
2023-02-23T02:28:37.269Z,24.60
2023-02-23T02:31:31.209Z,24.70
2023-02-23T02:34:27.055Z,24.60
2023-02-23T02:37:20.456Z,24.60
2023-02-23T02:40:15.361Z,24.70
2023-02-23T02:43:09.322Z,24.60
2023-02-23T02:45:49.018Z,24.70
2023-02-23T02:48:26.877Z,24.60
2023-02-23T02:50:59.619Z,24.60
2023-02-23T02:53:38.394Z,24.60
2023-02-23T02:56:09.590Z,24.60
2023-02-23T02:58:39.980Z,24.60
2023-02-23T03:01:30.648Z,24.60
2023-02-23T03:04:19.722Z,24.60
2023-02-23T03:07:11.682Z,24.60
2023-02-23T03:10:07.710Z,24.60
2023-02-23T03:12:58.742Z,24.60
2023-02-23T03:15:58.177Z,24.60
2023-02-23T03:18:58.072Z,24.60
2023-02-23T03:21:49.856Z,24.60
2023-02-23T03:24:46.242Z,24.60
2023-02-23T03:27:45.972Z,24.60
2023-02-23T03:30:39.962Z,24.60
2023-02-23T03:33:31.239Z,24.60
2023-02-23T03:36:24.989Z,24.60
2023-02-23T03:39:18.583Z,24.60
2023-02-23T03:42:07.231Z,24.50
2023-02-23T03:44:58.805Z,24.60
2023-02-23T03:47:50.470Z,24.60
2023-02-23T03:50:43.139Z,24.60
2023-02-23T03:53:33.023Z,24.60
2023-02-23T03:56:21.246Z,24.50
2023-02-23T03:59:13.454Z,24.50
2023-02-23T04:02:01.662Z,24.40
2023-02-23T04:04:49.469Z,24.40
2023-02-23T04:07:38.830Z,24.40
2023-02-23T04:10:26.948Z,24.40
2023-02-23T04:13:16.097Z,24.30
2023-02-23T04:15:49.858Z,24.30
2023-02-23T04:18:25.165Z,24.40
2023-02-23T04:20:55.390Z,24.30
2023-02-23T04:23:25.208Z,24.30
2023-02-23T04:25:55.208Z,24.30
2023-02-23T04:28:25.741Z,24.30
2023-02-23T04:30:54.981Z,24.30
2023-02-23T04:33:27.360Z,24.20
2023-02-23T04:35:57.107Z,24.20
2023-02-23T04:38:28.886Z,24.30
2023-02-23T04:40:58.248Z,24.30
2023-02-23T04:43:28.002Z,24.20
2023-02-23T04:45:57.772Z,24.20
2023-02-23T04:48:29.001Z,24.20
2023-02-23T04:50:58.268Z,24.20
2023-02-23T04:53:27.511Z,24.20
2023-02-23T04:59:23.896Z,24.20
2023-02-23T07:40:37.632Z,24.10
2023-02-23T07:43:37.419Z,24.20
2023-02-23T08:04:38.619Z,24.50
2023-02-23T08:24:35.063Z,24.80
2023-02-23T08:39:44.232Z,25.00
2023-02-23T09:06:47.822Z,25.40
2023-02-23T09:09:33.963Z,25.40
2023-02-23T09:12:18.495Z,25.50
2023-02-23T09:14:47.058Z,25.50
2023-02-23T09:18:16.037Z,25.50
2023-02-23T09:30:13.457Z,25.50
2023-02-23T09:32:47.206Z,25.50
2023-02-23T09:35:25.741Z,25.60
2023-02-23T09:38:11.700Z,25.60
2023-02-23T09:40:47.674Z,25.60
2023-02-23T09:43:24.568Z,25.60
2023-02-23T09:54:10.534Z,25.50
2023-02-23T09:56:46.704Z,25.50
2023-02-23T09:59:36.517Z,25.50
2023-02-23T11:38:26.914Z,25.50
2023-02-23T11:46:15.581Z,25.50
2023-02-23T13:04:26.531Z,26.20
2023-02-23T13:12:44.896Z,26.10
2023-02-23T13:37:46.934Z,26.00
2023-02-23T13:40:25.761Z,25.90
2023-02-23T13:43:07.129Z,25.90
2023-02-23T13:45:54.488Z,25.90
2023-02-23T13:48:41.779Z,25.90
2023-02-23T13:51:27.147Z,26.00
2023-02-23T13:54:07.862Z,25.80
2023-02-23T13:56:44.771Z,26.00
2023-02-23T13:59:19.492Z,25.90
2023-02-23T14:01:53.953Z,25.90
2023-02-23T14:13:29.488Z,25.80
2023-02-23T14:16:17.582Z,25.90
2023-02-23T14:20:11.390Z,25.80
2023-02-23T14:23:14.763Z,25.90
2023-02-23T15:18:05.836Z,25.60
2023-02-23T15:20:37.492Z,25.60
2023-02-23T15:23:07.575Z,25.60
2023-02-23T15:25:39.034Z,25.60
2023-02-23T15:28:23.369Z,25.60
2023-02-23T15:30:53.793Z,25.60
2023-02-23T15:33:28.870Z,25.60
2023-02-23T15:36:08.445Z,25.60
2023-02-23T15:38:44.347Z,25.50
2023-02-23T15:41:20.696Z,25.60
2023-02-23T15:43:50.708Z,25.60
2023-02-23T15:46:25.665Z,25.50
2023-02-23T15:49:00.948Z,25.50
2023-02-23T15:51:36.382Z,25.50
2023-02-23T15:54:14.184Z,25.50
2023-02-23T15:56:49.977Z,25.40
2023-02-23T18:38:01.613Z,24.80
2023-02-23T18:40:30.668Z,24.70
2023-02-23T18:43:00.571Z,24.80
2023-02-23T18:45:30.303Z,24.70
2023-02-23T18:47:59.414Z,24.70
2023-02-23T18:50:28.700Z,24.70
2023-02-23T18:53:05.379Z,24.70
2023-02-23T18:55:38.911Z,24.70
2023-02-23T18:58:08.651Z,24.70
2023-02-23T19:00:42.944Z,24.70
2023-02-23T19:03:15.176Z,24.70
2023-02-23T19:05:53.073Z,24.70
2023-02-23T19:08:24.457Z,24.80
2023-02-23T19:10:53.982Z,24.80
2023-02-23T19:13:23.245Z,24.80
2023-02-23T19:15:53.709Z,24.80
2023-02-23T19:18:23.643Z,24.80
2023-02-23T19:20:55.601Z,24.90
2023-02-23T19:23:26.370Z,24.80
2023-02-23T19:25:55.654Z,24.90
2023-02-23T19:28:24.909Z,24.90
2023-02-23T19:31:03.297Z,24.80
2023-02-23T19:33:32.587Z,24.90
2023-02-23T19:36:05.526Z,24.80
2023-02-23T19:38:35.953Z,24.90
2023-02-23T19:41:07.213Z,24.90
2023-02-23T19:43:36.192Z,24.90
2023-02-23T19:46:05.882Z,24.90
2023-02-23T19:48:37.496Z,24.80
2023-02-23T19:51:09.790Z,24.90
2023-02-23T19:53:40.717Z,24.80
2023-02-23T19:56:11.955Z,24.80
2023-02-23T19:58:44.786Z,24.80
2023-02-23T20:01:19.301Z,24.80
2023-02-23T20:03:55.799Z,24.80
2023-02-23T20:06:30.629Z,24.80
2023-02-23T20:09:02.114Z,24.80
2023-02-23T20:11:32.844Z,24.80
2023-02-23T20:14:05.623Z,24.80
2023-02-23T20:16:35.650Z,24.80
2023-02-23T20:19:06.875Z,24.80
2023-02-23T20:21:36.956Z,24.80
2023-02-23T20:24:07.907Z,24.80
2023-02-23T20:26:38.298Z,24.80
2023-02-23T20:29:11.374Z,24.80
2023-02-23T20:31:41.880Z,24.80
2023-02-23T20:34:12.319Z,24.80
2023-02-23T20:36:41.584Z,24.80
2023-02-23T20:39:11.829Z,24.80
2023-02-23T20:41:44.199Z,24.80
2023-02-23T20:44:13.460Z,24.80
2023-02-23T20:46:43.023Z,24.80
2023-02-23T20:49:12.499Z,24.80
2023-02-23T20:51:43.038Z,24.80
2023-02-23T20:54:14.884Z,24.80
2023-02-23T20:56:44.643Z,24.70
2023-02-23T20:59:15.778Z,24.80
2023-02-23T21:01:47.493Z,24.80
2023-02-23T21:04:17.473Z,24.80
2023-02-23T21:06:47.940Z,24.80
2023-02-23T21:09:23.549Z,24.80
2023-02-23T21:11:53.013Z,24.80
2023-02-23T21:14:21.993Z,24.70
2023-02-23T21:16:50.796Z,24.80
2023-02-23T21:19:20.552Z,24.80
2023-02-23T21:21:51.324Z,24.70
2023-02-23T21:24:22.092Z,24.70
2023-02-23T21:26:51.135Z,24.70
2023-02-23T21:29:24.187Z,24.70
2023-02-23T21:31:53.681Z,24.70
2023-02-23T21:34:22.666Z,24.70
2023-02-23T21:36:51.922Z,24.70
2023-02-23T21:39:28.198Z,24.70
2023-02-23T21:41:57.356Z,24.70
2023-02-23T21:44:26.271Z,24.70
2023-02-23T21:46:55.441Z,24.70
2023-02-23T21:49:24.439Z,24.70
2023-02-23T21:51:55.238Z,24.70
2023-02-23T21:54:26.070Z,24.70
2023-02-23T21:56:55.458Z,24.70
2023-02-23T21:59:24.504Z,24.70
2023-02-23T22:01:53.904Z,24.70
2023-02-23T22:04:25.144Z,24.70
2023-02-23T22:06:54.402Z,24.70
2023-02-23T22:09:25.177Z,24.70
2023-02-23T22:11:54.924Z,24.70
2023-02-23T22:14:24.140Z,24.70
2023-02-23T22:16:53.297Z,24.70
2023-02-23T22:19:22.345Z,24.70
2023-02-23T22:21:51.289Z,24.60
2023-02-23T22:24:20.545Z,24.70
2023-02-23T22:26:55.631Z,24.70
2023-02-23T22:29:26.878Z,24.70
2023-02-23T22:31:57.009Z,24.70
2023-02-23T22:34:27.166Z,24.70
2023-02-23T22:36:56.712Z,24.70
2023-02-23T22:39:26.091Z,24.60
2023-02-23T22:41:56.753Z,24.60
2023-02-23T22:44:26.044Z,24.60
2023-02-23T22:46:57.287Z,24.60
2023-02-23T22:49:27.029Z,24.60
2023-02-23T22:51:56.180Z,24.60
2023-02-23T22:54:26.781Z,24.60
2023-02-23T22:57:00.398Z,24.60
2023-02-23T22:59:30.577Z,24.60
2023-02-23T23:02:01.483Z,24.60
2023-02-23T23:04:30.700Z,24.60
2023-02-23T23:06:59.297Z,24.60
2023-02-23T23:09:28.339Z,24.60
2023-02-23T23:12:01.365Z,24.60
2023-02-23T23:14:32.998Z,24.60
2023-02-23T23:17:02.195Z,24.60
2023-02-23T23:19:38.804Z,24.50
2023-02-23T23:22:13.851Z,24.50
2023-02-23T23:24:46.414Z,24.50
2023-02-23T23:27:17.070Z,24.60
2023-02-23T23:29:47.230Z,24.60
2023-02-23T23:32:18.657Z,24.60
2023-02-23T23:34:50.324Z,24.60
2023-02-23T23:37:20.601Z,24.50
2023-02-23T23:40:00.392Z,24.50
2023-02-23T23:42:35.149Z,24.60
2023-02-23T23:45:06.420Z,24.50
2023-02-23T23:47:35.719Z,24.50
2023-02-23T23:50:11.006Z,24.60
2023-02-23T23:52:44.130Z,24.50
2023-02-23T23:55:15.359Z,24.50
2023-02-23T23:57:47.136Z,24.50
